createdAt,value
2022-12-31T00:00:40.681Z,99782.03
2022-12-31T00:03:09.727Z,99758.19
2022-12-31T00:05:38.043Z,99772.56
2022-12-31T00:08:06.410Z,99777.66
2022-12-31T00:10:41.406Z,99794.53
2022-12-31T00:13:09.925Z,99788.09
2022-12-31T00:15:40.479Z,99775.03
2022-12-31T00:18:09.202Z,99781.31
2022-12-31T00:20:40.997Z,99778.09
2022-12-31T00:23:10.078Z,99779.22
2022-12-31T00:25:38.176Z,99788.09
2022-12-31T00:28:06.452Z,99781.34
2022-12-31T00:30:35.575Z,99788.59
2022-12-31T00:33:05.046Z,99794.63
2022-12-31T00:35:34.720Z,99792.56
2022-12-31T00:38:02.801Z,99786.78
2022-12-31T00:40:30.789Z,99797.19
2022-12-31T00:42:58.825Z,99782.34
2022-12-31T00:45:26.929Z,99787.78
2022-12-31T00:47:54.909Z,99778.41
2022-12-31T00:50:24.299Z,99795.94
2022-12-31T00:52:53.244Z,99806.31
2022-12-31T00:55:21.432Z,99804.16
2022-12-31T00:57:49.554Z,99800.13
2022-12-31T01:00:18.042Z,99811.75
2022-12-31T01:02:46.223Z,99796.19
2022-12-31T01:05:14.280Z,99814.38
2022-12-31T01:07:43.678Z,99813.47
2022-12-31T01:10:11.937Z,99817.59
2022-12-31T01:12:39.985Z,99803.09
2022-12-31T01:15:08.792Z,99793.06
2022-12-31T01:17:36.811Z,99788.31
2022-12-31T01:20:07.436Z,99794.06
2022-12-31T01:22:35.444Z,99773.16
2022-12-31T01:25:05.306Z,99774.41
2022-12-31T01:27:33.360Z,99765.91
2022-12-31T01:30:01.471Z,99749.63
2022-12-31T01:32:29.460Z,99751.28
2022-12-31T01:34:57.633Z,99760.16
2022-12-31T01:37:25.596Z,99778.59
2022-12-31T01:39:53.557Z,99794.88
2022-12-31T01:42:22.942Z,99811.09
2022-12-31T01:44:54.469Z,99818.72
2022-12-31T01:47:33.722Z,99804.59
2022-12-31T01:50:08.008Z,99780.09
2022-12-31T01:52:39.499Z,99795.88
2022-12-31T01:55:15.989Z,99813.16
2022-12-31T01:57:48.254Z,99804.00
2022-12-31T02:00:17.589Z,99801.78
2022-12-31T02:02:45.765Z,99796.28
2022-12-31T02:05:19.129Z,99803.25
2022-12-31T02:07:49.243Z,99801.13
2022-12-31T02:10:17.744Z,99806.31
2022-12-31T02:12:47.683Z,99802.94
2022-12-31T02:15:16.186Z,99801.03
2022-12-31T02:17:52.874Z,99796.19
2022-12-31T02:20:55.159Z,99802.75
2022-12-31T02:24:01.368Z,99801.13
2022-12-31T02:26:50.791Z,99805.72
2022-12-31T02:29:47.987Z,99805.16
2022-12-31T02:32:21.047Z,99802.44
2022-12-31T02:34:54.236Z,99793.69
2022-12-31T02:37:27.997Z,99800.03
2022-12-31T02:39:56.547Z,99802.28
2022-12-31T02:42:24.594Z,99822.69
2022-12-31T02:44:52.580Z,99819.03
2022-12-31T02:47:31.931Z,99808.19
2022-12-31T02:50:09.697Z,99802.28
2022-12-31T02:52:50.173Z,99806.88
2022-12-31T02:55:25.575Z,99811.00
2022-12-31T02:58:00.122Z,99809.34
2022-12-31T03:00:48.791Z,99803.44
2022-12-31T03:03:20.305Z,99807.38
2022-12-31T03:05:51.041Z,99809.84
2022-12-31T03:08:23.174Z,99810.75
2022-12-31T03:10:51.300Z,99814.28
2022-12-31T03:13:18.589Z,99813.22
2022-12-31T03:15:49.651Z,99809.69
2022-12-31T03:18:40.946Z,99817.09
2022-12-31T03:21:28.091Z,99806.72
2022-12-31T03:24:13.733Z,99792.06
2022-12-31T03:26:41.797Z,99798.41
2022-12-31T03:29:09.793Z,99807.97
2022-12-31T03:31:37.777Z,99793.06
2022-12-31T03:34:07.100Z,99781.38
2022-12-31T03:36:35.130Z,99775.66
2022-12-31T03:39:04.829Z,99760.16
2022-12-31T03:41:32.809Z,99753.06
2022-12-31T03:44:00.866Z,99752.59
2022-12-31T03:46:28.844Z,99756.94
2022-12-31T03:48:56.837Z,99748.63
2022-12-31T03:51:26.183Z,99738.59
2022-12-31T03:53:54.383Z,99740.06
2022-12-31T03:56:22.365Z,99729.88
2022-12-31T03:58:50.467Z,99735.81
2022-12-31T04:01:19.242Z,99727.16
2022-12-31T04:03:47.487Z,99723.13
2022-12-31T04:06:15.466Z,99713.50
2022-12-31T04:08:44.896Z,99707.56
2022-12-31T04:11:20.507Z,99707.66
2022-12-31T04:13:49.909Z,99702.53
2022-12-31T04:16:17.954Z,99694.66
2022-12-31T04:18:46.050Z,99699.06
2022-12-31T04:21:14.043Z,99691.44
2022-12-31T04:23:42.043Z,99684.50
2022-12-31T04:26:11.455Z,99678.31
2022-12-31T04:28:39.431Z,99675.59
2022-12-31T04:31:07.480Z,99668.25
2022-12-31T04:33:35.463Z,99685.28
2022-12-31T04:36:03.868Z,99673.34
2022-12-31T04:38:32.004Z,99670.44
2022-12-31T04:41:17.373Z,99670.47
2022-12-31T04:43:49.167Z,99670.03
2022-12-31T04:46:19.299Z,99681.75
2022-12-31T04:48:47.532Z,99690.06
2022-12-31T04:51:16.253Z,99679.25
2022-12-31T04:53:44.293Z,99688.56
2022-12-31T04:56:12.886Z,99695.69
2022-12-31T04:58:41.460Z,99693.91
2022-12-31T05:01:11.966Z,99697.56
2022-12-31T05:03:40.557Z,99693.31
2022-12-31T05:06:13.460Z,99708.09
2022-12-31T05:08:41.556Z,99698.91
2022-12-31T05:11:09.700Z,99694.88
2022-12-31T05:13:38.099Z,99709.38
2022-12-31T05:16:06.921Z,99706.69
2022-12-31T05:18:36.327Z,99702.97
2022-12-31T05:21:05.000Z,99704.06
2022-12-31T05:23:33.318Z,99699.75
2022-12-31T05:26:01.963Z,99706.94
2022-12-31T05:28:29.921Z,99703.44
2022-12-31T05:30:57.991Z,99717.84
2022-12-31T05:33:26.130Z,99717.09
2022-12-31T05:35:57.914Z,99716.59
2022-12-31T05:38:26.268Z,99725.91
2022-12-31T05:41:00.702Z,99733.03
2022-12-31T05:43:28.876Z,99709.06
2022-12-31T05:45:56.924Z,99717.50
2022-12-31T05:48:25.191Z,99734.44
2022-12-31T05:50:53.151Z,99719.22
2022-12-31T05:53:22.586Z,99728.78
2022-12-31T05:55:51.693Z,99721.41
2022-12-31T05:58:20.027Z,99755.22
2022-12-31T06:00:48.015Z,99746.50
2022-12-31T06:03:16.477Z,99742.44
2022-12-31T06:05:44.633Z,99732.34
2022-12-31T06:08:13.369Z,99747.34
2022-12-31T06:10:42.754Z,99742.72
2022-12-31T06:13:10.771Z,99756.97
2022-12-31T06:15:40.505Z,99762.97
2022-12-31T06:18:08.893Z,99773.34
2022-12-31T06:20:38.126Z,99790.25
2022-12-31T06:23:06.804Z,99780.94
2022-12-31T06:25:37.372Z,99776.03
2022-12-31T06:28:07.185Z,99791.91
2022-12-31T06:30:35.161Z,99774.47
2022-12-31T06:33:03.229Z,99787.53
2022-12-31T06:35:32.323Z,99788.94
2022-12-31T06:38:00.663Z,99792.75
2022-12-31T06:40:28.679Z,99788.63
2022-12-31T06:43:00.095Z,99782.13
2022-12-31T06:45:29.918Z,99790.34
2022-12-31T06:47:57.910Z,99801.19
2022-12-31T06:50:25.926Z,99791.88
2022-12-31T06:52:54.955Z,99791.34
2022-12-31T06:55:23.645Z,99798.47
2022-12-31T06:57:52.254Z,99770.63
2022-12-31T07:00:21.750Z,99790.25
2022-12-31T07:03:05.650Z,99788.13
2022-12-31T07:05:43.165Z,99791.09
2022-12-31T07:08:22.845Z,99799.84
2022-12-31T07:10:57.408Z,99808.28
2022-12-31T07:13:39.641Z,99812.34
2022-12-31T07:16:21.153Z,99824.66
2022-12-31T07:18:57.594Z,99821.34
2022-12-31T07:21:34.579Z,99813.44
2022-12-31T07:24:03.205Z,99827.91
2022-12-31T07:26:51.127Z,99822.94
2022-12-31T07:29:26.352Z,99820.50
2022-12-31T07:32:06.867Z,99822.94
2022-12-31T07:34:45.907Z,99831.13
2022-12-31T07:37:21.937Z,99815.03
2022-12-31T07:40:04.399Z,99830.03
2022-12-31T07:42:40.031Z,99830.31
2022-12-31T07:45:17.617Z,99830.47
2022-12-31T07:47:47.544Z,99840.41
2022-12-31T07:50:19.839Z,99847.22
2022-12-31T07:52:48.489Z,99860.88
2022-12-31T07:55:16.734Z,99860.00
2022-12-31T07:57:58.583Z,99843.66
2022-12-31T08:00:27.918Z,99854.56
2022-12-31T08:03:25.491Z,99856.19
2022-12-31T08:06:09.446Z,99863.59
2022-12-31T08:08:45.420Z,99873.34
2022-12-31T08:11:20.235Z,99890.81
2022-12-31T08:13:48.841Z,99897.69
2022-12-31T08:16:17.483Z,99899.88
2022-12-31T08:18:46.048Z,99912.13
2022-12-31T08:21:32.708Z,99900.66
2022-12-31T08:24:11.770Z,99926.63
2022-12-31T08:26:54.140Z,99912.44
2022-12-31T08:29:35.028Z,99913.84
2022-12-31T08:32:12.150Z,99926.63
2022-12-31T08:34:49.610Z,99927.75
2022-12-31T08:37:27.529Z,99955.84
2022-12-31T08:40:08.987Z,99948.16
2022-12-31T08:42:45.918Z,99952.59
2022-12-31T08:45:21.721Z,99966.97
2022-12-31T08:48:00.299Z,99952.50
2022-12-31T08:50:29.462Z,99976.75
2022-12-31T08:52:59.762Z,99966.97
2022-12-31T08:55:28.706Z,99962.03
2022-12-31T08:58:09.833Z,99968.25
2022-12-31T09:00:40.012Z,99972.38
2022-12-31T09:03:25.472Z,99988.78
2022-12-31T09:06:03.721Z,99977.56
2022-12-31T09:08:42.801Z,99981.59
2022-12-31T09:11:22.601Z,99970.16
2022-12-31T09:14:10.949Z,99974.53
2022-12-31T09:16:49.712Z,99971.50
2022-12-31T09:19:17.867Z,99985.06
2022-12-31T09:21:46.223Z,99972.84
2022-12-31T09:24:17.045Z,99977.53
2022-12-31T09:26:57.552Z,99976.38
2022-12-31T09:29:44.356Z,99985.41
2022-12-31T09:32:22.212Z,99994.41
2022-12-31T09:34:57.704Z,99987.84
2022-12-31T09:37:39.723Z,99990.34
2022-12-31T09:40:31.054Z,100003.88
2022-12-31T09:43:23.264Z,100004.50
2022-12-31T09:46:16.339Z,100006.63
2022-12-31T09:49:37.822Z,99997.38
2022-12-31T09:52:15.444Z,100018.66
2022-12-31T09:54:54.430Z,100019.75
2022-12-31T09:57:35.184Z,100015.94
2022-12-31T10:00:11.078Z,100010.19
2022-12-31T10:03:00.590Z,100015.41
2022-12-31T10:05:51.532Z,100020.25
2022-12-31T10:08:34.836Z,100005.22
2022-12-31T10:11:07.612Z,100003.88
2022-12-31T10:13:47.535Z,100001.69
2022-12-31T10:16:55.090Z,99991.25
2022-12-31T10:20:07.179Z,99988.81
2022-12-31T10:22:55.856Z,99989.13
2022-12-31T10:25:39.386Z,100001.06
2022-12-31T10:28:22.742Z,100002.16
2022-12-31T10:31:01.317Z,99996.19
2022-12-31T10:33:42.615Z,99992.34
2022-12-31T10:36:20.064Z,100001.94
2022-12-31T10:38:58.480Z,99999.19
2022-12-31T10:42:03.258Z,99999.97
2022-12-31T10:44:59.501Z,99996.69
2022-12-31T10:47:49.173Z,99999.47
2022-12-31T10:50:55.786Z,99983.59
2022-12-31T10:53:56.570Z,99988.06
2022-12-31T10:57:15.168Z,99994.28
2022-12-31T11:00:08.689Z,99980.88
2022-12-31T11:03:29.688Z,99985.28
2022-12-31T11:06:36.424Z,99988.13
2022-12-31T11:09:41.148Z,100004.81
2022-12-31T11:12:25.681Z,99988.66
2022-12-31T11:15:19.250Z,99992.69
2022-12-31T11:17:59.416Z,99984.00
2022-12-31T11:20:56.964Z,99970.84
2022-12-31T11:23:37.081Z,99973.03
2022-12-31T11:26:18.746Z,99973.56
2022-12-31T11:29:04.523Z,99979.81
2022-12-31T11:31:45.425Z,99989.38
2022-12-31T11:34:24.951Z,99983.59
2022-12-31T11:37:11.720Z,99986.78
2022-12-31T11:39:48.286Z,99979.69
2022-12-31T11:42:22.254Z,99980.53
2022-12-31T11:44:58.619Z,99982.13
2022-12-31T11:48:04.295Z,99964.97
2022-12-31T11:50:43.816Z,99966.53
2022-12-31T11:53:30.975Z,99975.78
2022-12-31T11:56:11.365Z,99969.91
2022-12-31T11:58:42.073Z,99967.75
2022-12-31T12:01:17.482Z,99956.84
2022-12-31T12:03:46.428Z,99956.78
2022-12-31T12:06:16.607Z,99953.81
2022-12-31T12:08:45.972Z,99960.03
2022-12-31T12:11:21.854Z,99951.84
2022-12-31T12:13:49.988Z,99943.69
2022-12-31T12:16:22.412Z,99940.97
2022-12-31T12:18:52.954Z,99943.13
2022-12-31T12:21:23.838Z,99928.78
2022-12-31T12:23:57.269Z,99919.81
2022-12-31T12:26:31.389Z,99924.56
2022-12-31T12:29:01.340Z,99913.34
2022-12-31T12:31:34.190Z,99908.75
2022-12-31T12:34:02.275Z,99932.50
2022-12-31T12:36:30.332Z,99913.56
2022-12-31T12:39:03.427Z,99917.91
2022-12-31T12:41:31.411Z,99904.06
2022-12-31T12:44:07.829Z,99897.81
2022-12-31T12:46:47.960Z,99906.50
2022-12-31T12:49:23.148Z,99903.22
2022-12-31T12:52:36.782Z,99904.34
2022-12-31T12:55:16.685Z,99902.19
2022-12-31T12:57:49.688Z,99903.78
2022-12-31T13:00:20.380Z,99921.50
2022-12-31T13:03:21.233Z,99905.69
2022-12-31T13:06:16.559Z,99930.41
2022-12-31T13:09:00.693Z,99919.59
2022-12-31T13:11:38.707Z,99929.63
2022-12-31T13:14:18.613Z,99925.50
2022-12-31T13:16:54.416Z,99911.41
2022-12-31T13:19:32.051Z,99928.50
2022-12-31T13:22:06.378Z,99932.63
2022-12-31T13:24:54.279Z,99912.75
2022-12-31T13:27:29.715Z,99923.88
2022-12-31T13:30:01.978Z,99928.75
2022-12-31T13:32:39.922Z,99905.56
2022-12-31T13:35:24.455Z,99944.56
2022-12-31T13:38:05.174Z,99900.66
2022-12-31T13:40:42.173Z,99925.91
2022-12-31T13:43:17.801Z,99897.00
2022-12-31T13:45:59.393Z,99884.47
2022-12-31T13:48:35.811Z,99885.03
2022-12-31T13:51:09.250Z,99878.44
2022-12-31T13:53:46.624Z,99880.09
2022-12-31T13:56:19.124Z,99875.16
2022-12-31T13:58:53.178Z,99889.84
2022-12-31T14:01:29.406Z,99885.81
2022-12-31T14:04:07.284Z,99879.47
2022-12-31T14:06:42.277Z,99874.22
2022-12-31T14:09:18.787Z,99879.66
2022-12-31T14:12:10.327Z,99879.88
2022-12-31T14:14:47.152Z,99890.25
2022-12-31T14:17:23.701Z,99885.31
2022-12-31T14:20:07.211Z,99877.59
2022-12-31T14:22:42.901Z,99873.19
2022-12-31T14:25:22.450Z,99873.75
2022-12-31T14:27:54.490Z,99887.34
2022-12-31T14:30:24.516Z,99879.75
2022-12-31T14:33:21.945Z,99885.94
2022-12-31T14:36:02.849Z,99908.06
2022-12-31T14:38:48.614Z,99905.84
2022-12-31T14:41:35.735Z,99887.84
2022-12-31T14:44:18.736Z,99899.25
2022-12-31T14:47:02.100Z,99905.72
2022-12-31T14:49:40.294Z,99913.63
2022-12-31T14:52:22.915Z,99894.31
2022-12-31T14:55:02.784Z,99892.94
2022-12-31T14:58:16.807Z,99888.00
2022-12-31T15:00:34.315Z,99908.69
2022-12-31T15:03:04.667Z,99883.66
2022-12-31T15:05:35.577Z,99876.31
2022-12-31T15:08:18.992Z,99862.63
2022-12-31T15:10:59.673Z,99863.50
2022-12-31T15:13:45.112Z,99872.69
2022-12-31T15:16:35.869Z,99865.84
2022-12-31T15:19:43.600Z,99878.94
2022-12-31T15:22:25.828Z,99889.25
2022-12-31T15:24:54.104Z,99884.84
2022-12-31T15:27:34.116Z,99898.75
2022-12-31T15:30:06.002Z,99904.47
2022-12-31T15:32:38.057Z,99888.06
2022-12-31T15:35:27.025Z,99907.94
2022-12-31T15:38:03.196Z,99889.69
2022-12-31T15:40:32.054Z,99886.41
2022-12-31T15:43:05.625Z,99888.31
2022-12-31T15:45:39.931Z,99897.22
2022-12-31T15:48:14.725Z,99906.22
2022-12-31T15:50:44.246Z,99915.69
2022-12-31T15:53:25.926Z,99908.09
2022-12-31T15:55:55.752Z,99917.84
2022-12-31T15:58:26.889Z,99928.13
2022-12-31T16:01:04.605Z,99905.53
2022-12-31T16:03:33.180Z,99909.56
2022-12-31T16:06:03.524Z,99907.19
2022-12-31T16:08:34.738Z,99910.59
2022-12-31T16:11:05.062Z,99911.63
2022-12-31T16:13:36.229Z,99920.88
2022-12-31T16:16:07.197Z,99911.91
2022-12-31T16:18:40.079Z,99900.72
2022-12-31T16:21:23.673Z,99910.66
2022-12-31T16:23:52.161Z,99914.22
2022-12-31T16:26:20.526Z,99901.06
2022-12-31T16:28:50.245Z,99899.41
2022-12-31T16:31:20.906Z,99897.75
2022-12-31T16:33:49.150Z,99880.13
2022-12-31T16:36:24.080Z,99891.16
2022-12-31T16:38:53.196Z,99901.22
2022-12-31T16:41:22.139Z,99899.66
2022-12-31T16:43:51.487Z,99913.00
2022-12-31T16:46:26.815Z,99902.94
2022-12-31T16:48:58.494Z,99904.28
2022-12-31T16:51:30.071Z,99907.81
2022-12-31T16:53:59.622Z,99906.00
2022-12-31T16:56:32.880Z,99927.75
2022-12-31T16:59:03.320Z,99907.63
2022-12-31T17:01:35.992Z,99913.06
2022-12-31T17:04:09.190Z,99916.38
2022-12-31T17:06:39.209Z,99906.81
2022-12-31T17:09:14.497Z,99910.13
2022-12-31T17:11:50.455Z,99912.84
2022-12-31T17:14:20.613Z,99909.84
2022-12-31T17:17:02.566Z,99927.91
2022-12-31T17:19:41.576Z,99909.44
2022-12-31T17:22:16.710Z,99903.56
2022-12-31T17:24:45.076Z,99909.00
2022-12-31T17:27:13.240Z,99905.34
2022-12-31T17:29:42.356Z,99906.34
2022-12-31T17:35:29.212Z,99903.63
2022-12-31T17:38:28.651Z,99907.44
2022-12-31T17:41:05.439Z,99905.78
2022-12-31T17:43:35.536Z,99908.09
2022-12-31T17:46:10.073Z,99893.44
2022-12-31T17:48:38.457Z,99899.00
2022-12-31T17:51:08.034Z,99895.72
2022-12-31T17:53:36.176Z,99888.75
2022-12-31T17:56:06.248Z,99898.56
2022-12-31T17:58:37.512Z,99893.69
2022-12-31T18:01:07.705Z,99909.25
2022-12-31T18:03:36.697Z,99899.25
2022-12-31T18:06:05.465Z,99895.78
2022-12-31T18:08:34.845Z,99914.91
2022-12-31T18:11:02.929Z,99898.50
2022-12-31T18:13:31.404Z,99892.78
2022-12-31T18:15:59.791Z,99898.06
2022-12-31T18:18:29.392Z,99908.19
2022-12-31T18:20:59.839Z,99891.84
2022-12-31T18:23:30.136Z,99905.66
2022-12-31T18:25:59.456Z,99908.13
2022-12-31T18:28:27.552Z,99914.13
2022-12-31T18:30:56.847Z,99906.28
2022-12-31T18:33:26.844Z,99911.38
2022-12-31T18:36:10.706Z,99903.00
2022-12-31T18:38:39.330Z,99897.03
2022-12-31T18:41:16.526Z,99905.47
2022-12-31T18:43:44.708Z,99905.78
2022-12-31T18:46:14.963Z,99931.97
2022-12-31T18:48:44.264Z,99906.06
2022-12-31T18:51:15.196Z,99916.16
2022-12-31T18:53:43.449Z,99916.44
2022-12-31T18:56:15.055Z,99900.13
2022-12-31T18:58:43.782Z,99900.69
2022-12-31T19:01:25.982Z,99921.38
2022-12-31T19:03:54.798Z,99908.09
2022-12-31T19:06:23.376Z,99916.28
2022-12-31T19:08:51.603Z,99901.25
2022-12-31T19:11:22.113Z,99921.16
2022-12-31T19:13:50.990Z,99914.59
2022-12-31T19:16:19.254Z,99902.13
2022-12-31T19:18:47.506Z,99919.81
2022-12-31T19:21:17.959Z,99922.03
2022-12-31T19:23:46.741Z,99908.69
2022-12-31T19:26:19.783Z,99913.41
2022-12-31T19:28:50.874Z,99917.00
2022-12-31T19:31:19.497Z,99912.56
2022-12-31T19:33:47.567Z,99924.09
2022-12-31T19:36:17.541Z,99919.47
2022-12-31T19:38:46.220Z,99926.25
2022-12-31T19:41:17.180Z,99951.06
2022-12-31T19:43:45.710Z,99952.75
2022-12-31T19:46:16.740Z,99947.88
2022-12-31T19:48:47.872Z,99976.75
2022-12-31T19:51:17.149Z,99977.34
2022-12-31T19:53:46.145Z,99974.63
2022-12-31T19:56:16.462Z,99975.19
2022-12-31T19:58:45.429Z,99993.16
2022-12-31T20:01:19.480Z,99994.84
2022-12-31T20:03:47.880Z,99990.50
2022-12-31T20:06:17.345Z,99995.72
2022-12-31T20:08:46.636Z,99988.56
2022-12-31T20:11:17.424Z,99980.41
2022-12-31T20:13:46.971Z,99994.84
2022-12-31T20:16:18.092Z,99997.91
2022-12-31T20:18:48.356Z,99998.75
2022-12-31T20:21:19.030Z,100012.94
2022-12-31T20:23:47.165Z,100016.75
2022-12-31T20:26:15.302Z,100030.94
2022-12-31T20:28:43.512Z,100038.03
2022-12-31T20:31:13.614Z,100039.63
2022-12-31T20:33:43.522Z,100050.44
2022-12-31T20:36:14.025Z,100074.00
2022-12-31T20:38:42.458Z,100045.34
2022-12-31T20:41:13.025Z,100046.97
2022-12-31T20:43:41.359Z,100057.28
2022-12-31T20:46:15.248Z,100068.97
2022-12-31T20:48:46.225Z,100065.69
2022-12-31T20:51:16.518Z,100067.81
2022-12-31T20:53:48.758Z,100066.19
2022-12-31T20:56:17.567Z,100065.03
2022-12-31T20:58:46.111Z,100082.72
2022-12-31T21:01:15.827Z,100080.19
2022-12-31T21:04:04.824Z,100083.50
2022-12-31T21:06:35.483Z,100086.97
2022-12-31T21:09:05.727Z,100098.16
2022-12-31T21:11:51.262Z,100097.78
2022-12-31T21:14:19.807Z,100095.38
2022-12-31T21:16:48.424Z,100093.75
2022-12-31T21:19:17.932Z,100089.03
2022-12-31T21:21:48.215Z,100113.81
2022-12-31T21:24:23.246Z,100113.25
2022-12-31T21:26:51.796Z,100112.66
2022-12-31T21:29:19.767Z,100124.94
2022-12-31T21:31:47.769Z,100126.19
2022-12-31T21:34:17.138Z,100121.56
2022-12-31T21:36:45.260Z,100116.47
2022-12-31T21:39:13.357Z,100122.41
2022-12-31T21:41:53.469Z,100110.06
2022-12-31T21:44:22.873Z,100113.81
2022-12-31T21:47:33.338Z,100112.19
2022-12-31T21:49:43.974Z,100125.22
2022-12-31T21:52:27.037Z,100112.84
2022-12-31T21:55:12.989Z,100121.69
2022-12-31T21:58:15.683Z,100133.00
2022-12-31T22:00:47.479Z,100130.84
2022-12-31T22:03:28.538Z,100121.53
2022-12-31T22:05:59.939Z,100125.06
2022-12-31T22:08:29.723Z,100129.28
2022-12-31T22:10:58.149Z,100139.28
2022-12-31T22:13:26.312Z,100144.72
2022-12-31T22:16:01.755Z,100148.53
2022-12-31T22:18:34.500Z,100144.22
2022-12-31T22:21:05.748Z,100131.78
2022-12-31T22:23:34.957Z,100143.97
2022-12-31T22:26:04.649Z,100153.28
2022-12-31T22:28:38.799Z,100152.97
2022-12-31T22:31:07.980Z,100157.19
2022-12-31T22:33:36.115Z,100165.81
2022-12-31T22:36:08.129Z,100170.78
2022-12-31T22:38:36.397Z,100161.22
2022-12-31T22:41:06.750Z,100167.13
2022-12-31T22:43:36.464Z,100166.16
2022-12-31T22:46:09.743Z,100169.84
2022-12-31T22:48:37.943Z,100178.09
2022-12-31T22:51:08.653Z,100176.53
2022-12-31T22:53:38.587Z,100194.59
2022-12-31T22:56:07.176Z,100196.16
2022-12-31T22:58:35.583Z,100210.50
2022-12-31T23:01:05.642Z,100205.16
2022-12-31T23:03:33.759Z,100209.44
2022-12-31T23:06:02.007Z,100218.78
2022-12-31T23:08:31.430Z,100216.91
2022-12-31T23:11:01.366Z,100221.88
2022-12-31T23:13:50.979Z,100233.59
2022-12-31T23:16:37.513Z,100238.44
2022-12-31T23:19:23.782Z,100227.34
2022-12-31T23:22:09.862Z,100234.31
2022-12-31T23:24:39.527Z,100230.28
2022-12-31T23:27:08.201Z,100229.19
2022-12-31T23:29:45.585Z,100239.75
2022-12-31T23:32:15.096Z,100234.91
2022-12-31T23:34:44.275Z,100235.50
2022-12-31T23:37:12.311Z,100241.78
2022-12-31T23:39:42.631Z,100243.06
2022-12-31T23:42:10.772Z,100252.31
2022-12-31T23:44:38.874Z,100247.22
2022-12-31T23:47:07.163Z,100245.72
2022-12-31T23:49:35.322Z,100241.56
2022-12-31T23:52:03.453Z,100245.72
2022-12-31T23:54:31.600Z,100249.34
2022-12-31T23:57:01.005Z,100252.88
2022-12-31T23:59:28.991Z,100251.81
